sensor_id;sensor_type;location;lat;lon;timestamp;pressure;altitude;pressure_sealevel;temperature;humidity
71195;BME280;58908;51.426;7.714;2023-07-28T00:00:30;98758.63;;;16.38;100.00
71195;BME280;58908;51.426;7.714;2023-07-28T00:02:57;98764.78;;;16.39;100.00
71195;BME280;58908;51.426;7.714;2023-07-28T00:05:24;98767.16;;;16.42;100.00
71195;BME280;58908;51.426;7.714;2023-07-28T00:07:56;98771.25;;;16.36;100.00
71195;BME280;58908;51.426;7.714;2023-07-28T00:10:22;98768.44;;;16.38;100.00
71195;BME280;58908;51.426;7.714;2023-07-28T00:12:48;98767.84;;;16.34;100.00
71195;BME280;58908;51.426;7.714;2023-07-28T00:15:15;98763.13;;;16.38;100.00
71195;BME280;58908;51.426;7.714;2023-07-28T00:17:41;98765.19;;;16.34;100.00
71195;BME280;58908;51.426;7.714;2023-07-28T00:20:10;98761.72;;;16.34;100.00
71195;BME280;58908;51.426;7.714;2023-07-28T00:22:36;98762.25;;;16.37;100.00
71195;BME280;58908;51.426;7.714;2023-07-28T00:25:02;98761.16;;;16.30;100.00
71195;BME280;58908;51.426;7.714;2023-07-28T00:27:29;98764.38;;;16.34;100.00
71195;BME280;58908;51.426;7.714;2023-07-28T00:29:55;98755.16;;;16.28;100.00
71195;BME280;58908;51.426;7.714;2023-07-28T00:32:21;98754.84;;;16.31;100.00
71195;BME280;58908;51.426;7.714;2023-07-28T00:34:47;98755.84;;;16.30;100.00
71195;BME280;58908;51.426;7.714;2023-07-28T00:37:15;98755.69;;;16.32;100.00
71195;BME280;58908;51.426;7.714;2023-07-28T00:39:41;98757.66;;;16.30;100.00
71195;BME280;58908;51.426;7.714;2023-07-28T00:42:07;98752.50;;;16.28;100.00
71195;BME280;58908;51.426;7.714;2023-07-28T00:44:34;98758.63;;;16.29;100.00
71195;BME280;58908;51.426;7.714;2023-07-28T00:47:00;98761.16;;;16.30;100.00
71195;BME280;58908;51.426;7.714;2023-07-28T00:49:27;98754.84;;;16.31;100.00
71195;BME280;58908;51.426;7.714;2023-07-28T00:51:53;98756.22;;;16.35;100.00
71195;BME280;58908;51.426;7.714;2023-07-28T00:54:24;98759.19;;;16.32;100.00
71195;BME280;58908;51.426;7.714;2023-07-28T00:56:50;98752.19;;;16.31;100.00
71195;BME280;58908;51.426;7.714;2023-07-28T00:59:17;98756.94;;;16.37;100.00
71195;BME280;58908;51.426;7.714;2023-07-28T01:01:46;98753.72;;;16.34;100.00
71195;BME280;58908;51.426;7.714;2023-07-28T01:04:12;98752.75;;;16.35;100.00
71195;BME280;58908;51.426;7.714;2023-07-28T01:06:44;98754.00;;;16.31;100.00
71195;BME280;58908;51.426;7.714;2023-07-28T01:09:13;98748.84;;;16.29;100.00
71195;BME280;58908;51.426;7.714;2023-07-28T01:11:53;98751.50;;;16.29;100.00
71195;BME280;58908;51.426;7.714;2023-07-28T01:14:20;98747.16;;;16.28;100.00
71195;BME280;58908;51.426;7.714;2023-07-28T01:16:46;98742.97;;;16.26;100.00
71195;BME280;58908;51.426;7.714;2023-07-28T01:19:13;98740.88;;;16.29;100.00
71195;BME280;58908;51.426;7.714;2023-07-28T01:21:40;98742.81;;;16.27;100.00
71195;BME280;58908;51.426;7.714;2023-07-28T01:24:12;98737.34;;;16.29;100.00
71195;BME280;58908;51.426;7.714;2023-07-28T01:26:42;98736.78;;;16.25;100.00
71195;BME280;58908;51.426;7.714;2023-07-28T01:29:09;98742.97;;;16.26;100.00
71195;BME280;58908;51.426;7.714;2023-07-28T01:31:37;98743.53;;;16.29;100.00
71195;BME280;58908;51.426;7.714;2023-07-28T01:34:05;98740.00;;;16.29;100.00
71195;BME280;58908;51.426;7.714;2023-07-28T01:36:31;98740.00;;;16.29;100.00
71195;BME280;58908;51.426;7.714;2023-07-28T01:38:57;98743.66;;;16.28;100.00
71195;BME280;58908;51.426;7.714;2023-07-28T01:41:24;98740.00;;;16.29;100.00
71195;BME280;58908;51.426;7.714;2023-07-28T01:43:51;98738.88;;;16.31;100.00
71195;BME280;58908;51.426;7.714;2023-07-28T01:46:20;98738.88;;;16.31;100.00
71195;BME280;58908;51.426;7.714;2023-07-28T01:48:46;98738.72;;;16.33;100.00
71195;BME280;58908;51.426;7.714;2023-07-28T01:51:13;98733.97;;;16.36;100.00
71195;BME280;58908;51.426;7.714;2023-07-28T01:53:39;98735.81;;;16.36;100.00
71195;BME280;58908;51.426;7.714;2023-07-28T01:56:05;98741.25;;;16.34;100.00
71195;BME280;58908;51.426;7.714;2023-07-28T01:58:32;98736.91;;;16.33;100.00
71195;BME280;58908;51.426;7.714;2023-07-28T02:00:59;98743.91;;;16.34;100.00
71195;BME280;58908;51.426;7.714;2023-07-28T02:03:28;98743.09;;;16.34;100.00
71195;BME280;58908;51.426;7.714;2023-07-28T02:05:55;98747.28;;;16.36;100.00
71195;BME280;58908;51.426;7.714;2023-07-28T02:08:21;98753.56;;;16.35;100.00
71195;BME280;58908;51.426;7.714;2023-07-28T02:10:47;98745.31;;;16.38;100.00
71195;BME280;58908;51.426;7.714;2023-07-28T02:13:13;98749.34;;;16.33;100.00
71195;BME280;58908;51.426;7.714;2023-07-28T02:15:40;98754.44;;;16.36;100.00
71195;BME280;58908;51.426;7.714;2023-07-28T02:18:07;98748.53;;;16.32;100.00
71195;BME280;58908;51.426;7.714;2023-07-28T02:20:34;98742.53;;;16.30;100.00
71195;BME280;58908;51.426;7.714;2023-07-28T02:23:00;98740.69;;;16.31;100.00
71195;BME280;58908;51.426;7.714;2023-07-28T02:25:27;98749.53;;;16.31;100.00
71195;BME280;58908;51.426;7.714;2023-07-28T02:27:53;98748.25;;;16.35;100.00
71195;BME280;58908;51.426;7.714;2023-07-28T02:30:20;98751.06;;;16.34;100.00
71195;BME280;58908;51.426;7.714;2023-07-28T02:32:46;98744.75;;;16.35;100.00
71195;BME280;58908;51.426;7.714;2023-07-28T02:35:13;98746.56;;;16.34;100.00
71195;BME280;58908;51.426;7.714;2023-07-28T02:37:40;98753.56;;;16.35;100.00
71195;BME280;58908;51.426;7.714;2023-07-28T02:40:08;98761.53;;;16.35;100.00
71195;BME280;58908;51.426;7.714;2023-07-28T02:42:37;98757.22;;;16.34;100.00
71195;BME280;58908;51.426;7.714;2023-07-28T02:45:04;98750.34;;;16.32;100.00
71195;BME280;58908;51.426;7.714;2023-07-28T02:47:30;98759.59;;;16.37;100.00
71195;BME280;58908;51.426;7.714;2023-07-28T02:49:56;98759.88;;;16.34;100.00
71195;BME280;58908;51.426;7.714;2023-07-28T02:52:24;98759.88;;;16.34;100.00
71195;BME280;58908;51.426;7.714;2023-07-28T02:54:50;98765.19;;;16.34;100.00
71195;BME280;58908;51.426;7.714;2023-07-28T02:57:17;98769.44;;;16.37;100.00
71195;BME280;58908;51.426;7.714;2023-07-28T02:59:43;98769.13;;;16.40;100.00
71195;BME280;58908;51.426;7.714;2023-07-28T03:02:19;98772.09;;;16.37;100.00
71195;BME280;58908;51.426;7.714;2023-07-28T03:04:45;98773.75;;;16.38;100.00
71195;BME280;58908;51.426;7.714;2023-07-28T03:07:11;98768.13;;;16.41;100.00
71195;BME280;58908;51.426;7.714;2023-07-28T03:09:39;98779.78;;;16.40;100.00
71195;BME280;58908;51.426;7.714;2023-07-28T03:12:05;98777.25;;;16.38;100.00
71195;BME280;58908;51.426;7.714;2023-07-28T03:14:32;98778.78;;;16.41;100.00
71195;BME280;58908;51.426;7.714;2023-07-28T03:16:58;98776.13;;;16.41;100.00
71195;BME280;58908;51.426;7.714;2023-07-28T03:19:24;98786.63;;;16.42;100.00
71195;BME280;58908;51.426;7.714;2023-07-28T03:21:51;98778.22;;;16.37;100.00
71195;BME280;58908;51.426;7.714;2023-07-28T03:24:17;98775.44;;;16.39;100.00
71195;BME280;58908;51.426;7.714;2023-07-28T03:26:45;98776.97;;;16.41;100.00
71195;BME280;58908;51.426;7.714;2023-07-28T03:29:11;98771.09;;;16.38;100.00
71195;BME280;58908;51.426;7.714;2023-07-28T03:31:37;98775.31;;;16.40;100.00
71195;BME280;58908;51.426;7.714;2023-07-28T03:34:04;98780.47;;;16.42;100.00
71195;BME280;58908;51.426;7.714;2023-07-28T03:36:30;98782.00;;;16.44;100.00
71195;BME280;58908;51.426;7.714;2023-07-28T03:38:56;98788.31;;;16.43;100.00
71195;BME280;58908;51.426;7.714;2023-07-28T03:41:23;98778.47;;;16.44;100.00
71195;BME280;58908;51.426;7.714;2023-07-28T03:43:50;98783.81;;;16.44;100.00
71195;BME280;58908;51.426;7.714;2023-07-28T03:46:17;98780.19;;;16.45;100.00
71195;BME280;58908;51.426;7.714;2023-07-28T03:48:43;98784.09;;;16.50;100.00
71195;BME280;58908;51.426;7.714;2023-07-28T03:51:09;98786.03;;;16.48;100.00
71195;BME280;58908;51.426;7.714;2023-07-28T03:53:35;98794.00;;;16.48;100.00
71195;BME280;58908;51.426;7.714;2023-07-28T03:56:02;98788.41;;;16.51;100.00
71195;BME280;58908;51.426;7.714;2023-07-28T03:58:28;98789.25;;;16.52;100.00
71195;BME280;58908;51.426;7.714;2023-07-28T04:00:56;98792.75;;;16.52;100.00
71195;BME280;58908;51.426;7.714;2023-07-28T04:03:26;98787.56;;;16.51;100.00
71195;BME280;58908;51.426;7.714;2023-07-28T04:05:53;98789.25;;;16.52;100.00
71195;BME280;58908;51.426;7.714;2023-07-28T04:08:19;98790.22;;;16.51;100.00
71195;BME280;58908;51.426;7.714;2023-07-28T04:10:45;98796.41;;;16.51;100.00
71195;BME280;58908;51.426;7.714;2023-07-28T04:13:12;98801.44;;;16.54;100.00
71195;BME280;58908;51.426;7.714;2023-07-28T04:15:38;98796.66;;;16.58;100.00
71195;BME280;58908;51.426;7.714;2023-07-28T04:18:05;98797.34;;;16.60;100.00
71195;BME280;58908;51.426;7.714;2023-07-28T04:20:32;98801.81;;;16.59;100.00
71195;BME280;58908;51.426;7.714;2023-07-28T04:22:58;98795.66;;;16.59;100.00
71195;BME280;58908;51.426;7.714;2023-07-28T04:25:34;98793.38;;;16.64;100.00
71195;BME280;58908;51.426;7.714;2023-07-28T04:28:00;98792.94;;;16.68;100.00
71195;BME280;58908;51.426;7.714;2023-07-28T04:30:26;98792.50;;;16.73;100.00
71195;BME280;58908;51.426;7.714;2023-07-28T04:32:53;98805.38;;;16.77;100.00
71195;BME280;58908;51.426;7.714;2023-07-28T04:35:20;98808.03;;;16.77;100.00
71195;BME280;58908;51.426;7.714;2023-07-28T04:37:46;98800.72;;;16.79;100.00
71195;BME280;58908;51.426;7.714;2023-07-28T04:40:13;98808.72;;;16.79;100.00
71195;BME280;58908;51.426;7.714;2023-07-28T04:42:39;98809.25;;;16.83;100.00
71195;BME280;58908;51.426;7.714;2023-07-28T04:45:06;98809.41;;;16.81;100.00
71195;BME280;58908;51.426;7.714;2023-07-28T04:47:32;98814.44;;;16.84;100.00
71195;BME280;58908;51.426;7.714;2023-07-28T04:49:59;98814.44;;;16.84;100.00
71195;BME280;58908;51.426;7.714;2023-07-28T04:52:26;98821.44;;;16.85;100.00
71195;BME280;58908;51.426;7.714;2023-07-28T04:54:52;98816.66;;;16.89;100.00
71195;BME280;58908;51.426;7.714;2023-07-28T04:57:19;98819.47;;;16.87;100.00
71195;BME280;58908;51.426;7.714;2023-07-28T04:59:45;98821.28;;;16.87;100.00
71195;BME280;58908;51.426;7.714;2023-07-28T05:02:12;98822.69;;;16.91;100.00
71195;BME280;58908;51.426;7.714;2023-07-28T05:04:38;98819.25;;;16.98;100.00
71195;BME280;58908;51.426;7.714;2023-07-28T05:07:04;98820.69;;;16.92;100.00
71195;BME280;58908;51.426;7.714;2023-07-28T05:09:32;98822.06;;;16.96;100.00
71195;BME280;58908;51.426;7.714;2023-07-28T05:11:58;98822.38;;;16.93;100.00
71195;BME280;58908;51.426;7.714;2023-07-28T05:14:24;98819.50;;;17.04;100.00
71195;BME280;58908;51.426;7.714;2023-07-28T05:16:51;98822.63;;;17.17;100.00
71195;BME280;58908;51.426;7.714;2023-07-28T05:19:17;98818.44;;;17.32;100.00
71195;BME280;58908;51.426;7.714;2023-07-28T05:21:43;98815.56;;;17.43;100.00
71195;BME280;58908;51.426;7.714;2023-07-28T05:24:09;98818.75;;;17.64;100.00
71195;BME280;58908;51.426;7.714;2023-07-28T05:26:37;98820.00;;;17.52;100.00
71195;BME280;58908;51.426;7.714;2023-07-28T05:29:04;98812.41;;;17.65;100.00
71195;BME280;58908;51.426;7.714;2023-07-28T05:31:30;98816.88;;;17.57;100.00
71195;BME280;58908;51.426;7.714;2023-07-28T05:33:56;98810.81;;;17.72;100.00
71195;BME280;58908;51.426;7.714;2023-07-28T05:36:22;98815.97;;;17.91;100.00
71195;BME280;58908;51.426;7.714;2023-07-28T05:38:49;98822.38;;;17.81;100.00
71195;BME280;58908;51.426;7.714;2023-07-28T05:41:16;98821.25;;;17.83;100.00
71195;BME280;58908;51.426;7.714;2023-07-28T05:43:43;98827.59;;;17.82;100.00
71195;BME280;58908;51.426;7.714;2023-07-28T05:46:10;98834.91;;;17.80;100.00
71195;BME280;58908;51.426;7.714;2023-07-28T05:48:36;98843.44;;;17.84;100.00
71195;BME280;58908;51.426;7.714;2023-07-28T05:51:03;98838.25;;;17.82;100.00
71195;BME280;58908;51.426;7.714;2023-07-28T05:53:29;98836.47;;;17.91;100.00
71195;BME280;58908;51.426;7.714;2023-07-28T05:55:55;98844.16;;;17.94;100.00
71195;BME280;58908;51.426;7.714;2023-07-28T05:58:21;98848.47;;;17.87;100.00
71195;BME280;58908;51.426;7.714;2023-07-28T06:00:49;98854.03;;;17.76;100.00
71195;BME280;58908;51.426;7.714;2023-07-28T06:03:16;98849.47;;;17.86;100.00
71195;BME280;58908;51.426;7.714;2023-07-28T06:05:42;98852.66;;;17.89;100.00
71195;BME280;58908;51.426;7.714;2023-07-28T06:08:11;98867.38;;;17.76;100.00
71195;BME280;58908;51.426;7.714;2023-07-28T06:10:39;98862.94;;;17.84;100.00
71195;BME280;58908;51.426;7.714;2023-07-28T06:13:05;98867.25;;;17.77;100.00
71195;BME280;58908;51.426;7.714;2023-07-28T06:15:32;98873.16;;;17.89;100.00
71195;BME280;58908;51.426;7.714;2023-07-28T06:18:01;98866.50;;;17.93;100.00
71195;BME280;58908;51.426;7.714;2023-07-28T06:20:27;98865.66;;;18.10;100.00
71195;BME280;58908;51.426;7.714;2023-07-28T06:22:54;98867.38;;;18.19;100.00
71195;BME280;58908;51.426;7.714;2023-07-28T06:25:20;98866.50;;;18.36;100.00
71195;BME280;58908;51.426;7.714;2023-07-28T06:27:47;98871.31;;;18.50;100.00
71195;BME280;58908;51.426;7.714;2023-07-28T06:30:13;98880.16;;;18.92;100.00
71195;BME280;58908;51.426;7.714;2023-07-28T06:32:40;98878.16;;;18.86;100.00
71195;BME280;58908;51.426;7.714;2023-07-28T06:35:08;98890.78;;;19.82;100.00
71195;BME280;58908;51.426;7.714;2023-07-28T06:37:34;98881.72;;;19.59;100.00
71195;BME280;58908;51.426;7.714;2023-07-28T06:40:01;98882.81;;;20.06;100.00
71195;BME280;58908;51.426;7.714;2023-07-28T06:42:27;98887.06;;;19.44;100.00
71195;BME280;58908;51.426;7.714;2023-07-28T06:44:54;98884.28;;;19.93;100.00
71195;BME280;58908;51.426;7.714;2023-07-28T06:47:21;98881.47;;;20.18;100.00
71195;BME280;58908;51.426;7.714;2023-07-28T06:49:47;98885.72;;;19.48;100.00
71195;BME280;58908;51.426;7.714;2023-07-28T06:52:20;98898.63;;;19.44;100.00
71195;BME280;58908;51.426;7.714;2023-07-28T06:54:46;98906.94;;;19.00;100.00
71195;BME280;58908;51.426;7.714;2023-07-28T06:57:14;98912.97;;;19.02;100.00
71195;BME280;58908;51.426;7.714;2023-07-28T06:59:40;98912.63;;;18.97;100.00
71195;BME280;58908;51.426;7.714;2023-07-28T07:02:07;98914.66;;;18.77;100.00
71195;BME280;58908;51.426;7.714;2023-07-28T07:04:34;98920.06;;;18.85;100.00
71195;BME280;58908;51.426;7.714;2023-07-28T07:07:00;98928.94;;;18.94;100.00
71195;BME280;58908;51.426;7.714;2023-07-28T07:09:29;98928.25;;;18.84;100.00
71195;BME280;58908;51.426;7.714;2023-07-28T07:11:55;98931.19;;;18.73;100.00
71195;BME280;58908;51.426;7.714;2023-07-28T07:14:21;98935.06;;;18.78;100.00
71195;BME280;58908;51.426;7.714;2023-07-28T07:16:48;98938.63;;;18.87;100.00
71195;BME280;58908;51.426;7.714;2023-07-28T07:19:14;98936.91;;;19.11;100.00
71195;BME280;58908;51.426;7.714;2023-07-28T07:21:42;98933.72;;;19.16;100.00
71195;BME280;58908;51.426;7.714;2023-07-28T07:24:09;98928.00;;;19.36;100.00
71195;BME280;58908;51.426;7.714;2023-07-28T07:26:39;98936.84;;;19.29;100.00
71195;BME280;58908;51.426;7.714;2023-07-28T07:29:06;98940.06;;;19.48;100.00
71195;BME280;58908;51.426;7.714;2023-07-28T07:31:33;98941.41;;;19.52;100.00
71195;BME280;58908;51.426;7.714;2023-07-28T07:34:02;98932.06;;;19.48;100.00
71195;BME280;58908;51.426;7.714;2023-07-28T07:36:29;98943.78;;;19.55;100.00
71195;BME280;58908;51.426;7.714;2023-07-28T07:38:55;98945.28;;;19.50;100.00
71195;BME280;58908;51.426;7.714;2023-07-28T07:41:22;98944.13;;;19.60;100.00
71195;BME280;58908;51.426;7.714;2023-07-28T07:43:51;98951.94;;;19.46;100.00
71195;BME280;58908;51.426;7.714;2023-07-28T07:46:18;98940.06;;;19.48;100.00
71195;BME280;58908;51.426;7.714;2023-07-28T07:48:45;98944.31;;;19.74;100.00
71195;BME280;58908;51.426;7.714;2023-07-28T07:51:11;98943.97;;;20.97;100.00
71195;BME280;58908;51.426;7.714;2023-07-28T07:53:38;98926.47;;;21.17;100.00
71195;BME280;58908;51.426;7.714;2023-07-28T07:56:04;98926.59;;;20.85;100.00
71195;BME280;58908;51.426;7.714;2023-07-28T07:58:31;98923.09;;;20.53;100.00
71195;BME280;58908;51.426;7.714;2023-07-28T08:00:58;98925.34;;;21.12;100.00
71195;BME280;58908;51.426;7.714;2023-07-28T08:03:25;98927.28;;;20.55;100.00
71195;BME280;58908;51.426;7.714;2023-07-28T08:05:52;98928.16;;;20.24;100.00
71195;BME280;58908;51.426;7.714;2023-07-28T08:08:18;98924.81;;;21.16;100.00
71195;BME280;58908;51.426;7.714;2023-07-28T08:10:45;98919.84;;;20.81;100.00
71195;BME280;58908;51.426;7.714;2023-07-28T08:13:12;98936.50;;;20.61;100.00
71195;BME280;58908;51.426;7.714;2023-07-28T08:15:38;98929.81;;;20.57;100.00
71195;BME280;58908;51.426;7.714;2023-07-28T08:18:06;98929.97;;;20.55;100.00
71195;BME280;58908;51.426;7.714;2023-07-28T08:20:32;98938.72;;;20.17;100.00
71195;BME280;58908;51.426;7.714;2023-07-28T08:22:58;98946.22;;;20.30;100.00
71195;BME280;58908;51.426;7.714;2023-07-28T08:25:25;98944.06;;;20.25;100.00
71195;BME280;58908;51.426;7.714;2023-07-28T08:27:51;98941.88;;;20.29;100.00
71195;BME280;58908;51.426;7.714;2023-07-28T08:30:18;98946.06;;;20.15;100.00
71195;BME280;58908;51.426;7.714;2023-07-28T08:32:50;98944.06;;;20.09;100.00
71195;BME280;58908;51.426;7.714;2023-07-28T08:35:18;98952.19;;;19.84;100.00
71195;BME280;58908;51.426;7.714;2023-07-28T08:37:47;98952.09;;;20.25;100.00
71195;BME280;58908;51.426;7.714;2023-07-28T08:40:13;98959.81;;;20.20;100.00
71195;BME280;58908;51.426;7.714;2023-07-28T08:42:40;98945.88;;;20.41;100.00
71195;BME280;58908;51.426;7.714;2023-07-28T08:45:07;98955.09;;;20.54;100.00
71195;BME280;58908;51.426;7.714;2023-07-28T08:47:34;98956.59;;;20.57;100.00
71195;BME280;58908;51.426;7.714;2023-07-28T08:50:00;98958.94;;;20.68;100.00
71195;BME280;58908;51.426;7.714;2023-07-28T08:52:28;98958.78;;;20.45;100.00
71195;BME280;58908;51.426;7.714;2023-07-28T08:54:54;98966.97;;;20.60;100.00
71195;BME280;58908;51.426;7.714;2023-07-28T08:57:21;98967.66;;;20.54;100.00
71195;BME280;58908;51.426;7.714;2023-07-28T08:59:47;98968.00;;;20.67;100.00
71195;BME280;58908;51.426;7.714;2023-07-28T09:02:15;98969.97;;;20.81;100.00
71195;BME280;58908;51.426;7.714;2023-07-28T09:04:41;98971.78;;;20.80;100.00
71195;BME280;58908;51.426;7.714;2023-07-28T09:07:08;98972.47;;;20.82;100.00
71195;BME280;58908;51.426;7.714;2023-07-28T09:09:36;98968.63;;;21.01;100.00
71195;BME280;58908;51.426;7.714;2023-07-28T09:12:02;98972.47;;;20.98;100.00
71195;BME280;58908;51.426;7.714;2023-07-28T09:14:29;98969.50;;;20.85;100.00
71195;BME280;58908;51.426;7.714;2023-07-28T09:16:56;98978.88;;;20.65;100.00
71195;BME280;58908;51.426;7.714;2023-07-28T09:19:31;98983.72;;;20.94;100.00
71195;BME280;58908;51.426;7.714;2023-07-28T09:21:58;98976.72;;;21.31;100.00
71195;BME280;58908;51.426;7.714;2023-07-28T09:24:29;98972.03;;;21.25;100.00
71195;BME280;58908;51.426;7.714;2023-07-28T09:26:58;98978.78;;;21.13;100.00
71195;BME280;58908;51.426;7.714;2023-07-28T09:29:25;98977.63;;;21.08;100.00
71195;BME280;58908;51.426;7.714;2023-07-28T09:31:53;98980.59;;;21.67;100.00
71195;BME280;58908;51.426;7.714;2023-07-28T09:34:23;98975.66;;;22.54;100.00
71195;BME280;58908;51.426;7.714;2023-07-28T09:36:51;98954.09;;;22.76;100.00
71195;BME280;58908;51.426;7.714;2023-07-28T09:39:18;98951.97;;;23.01;100.00
71195;BME280;58908;51.426;7.714;2023-07-28T09:41:46;98958.34;;;22.56;100.00
71195;BME280;58908;51.426;7.714;2023-07-28T09:44:14;98952.53;;;22.67;100.00
71195;BME280;58908;51.426;7.714;2023-07-28T09:46:44;98941.81;;;23.40;100.00
71195;BME280;58908;51.426;7.714;2023-07-28T09:49:15;98920.22;;;24.32;100.00
71195;BME280;58908;51.426;7.714;2023-07-28T09:51:41;98931.41;;;23.72;100.00
71195;BME280;58908;51.426;7.714;2023-07-28T09:54:16;98930.50;;;24.01;100.00
71195;BME280;58908;51.426;7.714;2023-07-28T09:56:44;98927.38;;;23.47;100.00
71195;BME280;58908;51.426;7.714;2023-07-28T09:59:14;98938.84;;;23.70;100.00
71195;BME280;58908;51.426;7.714;2023-07-28T10:01:43;98934.66;;;23.68;100.00
71195;BME280;58908;51.426;7.714;2023-07-28T10:04:09;98927.34;;;24.39;100.00
71195;BME280;58908;51.426;7.714;2023-07-28T10:06:36;98937.44;;;23.74;100.00
71195;BME280;58908;51.426;7.714;2023-07-28T10:09:03;98929.31;;;23.53;100.00
71195;BME280;58908;51.426;7.714;2023-07-28T10:11:30;98932.25;;;22.94;100.00
71195;BME280;58908;51.426;7.714;2023-07-28T10:13:57;98935.13;;;23.21;100.00
71195;BME280;58908;51.426;7.714;2023-07-28T10:16:31;98942.75;;;23.68;100.00
71195;BME280;58908;51.426;7.714;2023-07-28T10:18:58;98914.34;;;24.01;100.00
71195;BME280;58908;51.426;7.714;2023-07-28T10:21:27;98936.16;;;22.32;100.00
71195;BME280;58908;51.426;7.714;2023-07-28T10:23:54;98955.72;;;23.14;100.00
71195;BME280;58908;51.426;7.714;2023-07-28T10:26:30;98937.09;;;23.77;100.00
71195;BME280;58908;51.426;7.714;2023-07-28T10:28:57;98903.06;;;24.87;100.00
71195;BME280;58908;51.426;7.714;2023-07-28T10:31:35;98937.47;;;23.60;100.00
71195;BME280;58908;51.426;7.714;2023-07-28T10:34:02;98920.78;;;25.03;100.00
71195;BME280;58908;51.426;7.714;2023-07-28T10:36:32;98926.00;;;24.50;100.00
71195;BME280;58908;51.426;7.714;2023-07-28T10:38:59;98951.53;;;23.76;100.00
71195;BME280;58908;51.426;7.714;2023-07-28T10:41:25;98951.56;;;23.26;100.00
71195;BME280;58908;51.426;7.714;2023-07-28T10:43:52;98968.13;;;23.01;100.00
71195;BME280;58908;51.426;7.714;2023-07-28T10:46:20;98984.50;;;22.77;100.00
71195;BME280;58908;51.426;7.714;2023-07-28T10:48:51;98985.03;;;22.58;100.00
71195;BME280;58908;51.426;7.714;2023-07-28T10:51:21;98989.56;;;23.09;100.00
71195;BME280;58908;51.426;7.714;2023-07-28T10:53:49;98984.66;;;22.98;100.00
71195;BME280;58908;51.426;7.714;2023-07-28T10:56:16;98968.88;;;22.95;100.00
71195;BME280;58908;51.426;7.714;2023-07-28T10:58:42;99002.72;;;22.89;100.00
71195;BME280;58908;51.426;7.714;2023-07-28T11:01:08;98999.38;;;23.02;100.00
71195;BME280;58908;51.426;7.714;2023-07-28T11:03:34;98988.22;;;22.76;100.00
71195;BME280;58908;51.426;7.714;2023-07-28T11:06:02;98982.19;;;23.25;100.00
71195;BME280;58908;51.426;7.714;2023-07-28T11:08:29;98985.44;;;23.21;100.00
71195;BME280;58908;51.426;7.714;2023-07-28T11:10:55;99009.75;;;22.76;100.00
71195;BME280;58908;51.426;7.714;2023-07-28T11:13:22;99015.94;;;22.76;100.00
71195;BME280;58908;51.426;7.714;2023-07-28T11:15:50;99019.13;;;22.35;100.00
71195;BME280;58908;51.426;7.714;2023-07-28T11:18:16;99027.31;;;22.19;100.00
71195;BME280;58908;51.426;7.714;2023-07-28T11:20:42;99034.44;;;22.34;100.00
71195;BME280;58908;51.426;7.714;2023-07-28T11:23:13;99017.53;;;22.48;100.00
71195;BME280;58908;51.426;7.714;2023-07-28T11:25:39;99030.41;;;22.30;100.00
71195;BME280;58908;51.426;7.714;2023-07-28T11:28:07;99017.22;;;22.43;100.00
71195;BME280;58908;51.426;7.714;2023-07-28T11:30:35;99016.56;;;22.41;100.00
71195;BME280;58908;51.426;7.714;2023-07-28T11:33:02;99020.06;;;22.50;100.00
71195;BME280;58908;51.426;7.714;2023-07-28T11:35:29;99004.13;;;23.00;100.00
71195;BME280;58908;51.426;7.714;2023-07-28T11:37:55;98996.56;;;23.18;100.00
71195;BME280;58908;51.426;7.714;2023-07-28T11:40:23;98989.88;;;23.28;100.00
71195;BME280;58908;51.426;7.714;2023-07-28T11:42:51;98994.09;;;22.79;100.00
71195;BME280;58908;51.426;7.714;2023-07-28T11:45:18;98999.56;;;22.86;100.00
71195;BME280;58908;51.426;7.714;2023-07-28T11:47:56;98989.03;;;23.57;100.00
71195;BME280;58908;51.426;7.714;2023-07-28T11:50:23;98972.38;;;23.68;100.00
71195;BME280;58908;51.426;7.714;2023-07-28T11:52:50;98967.03;;;24.03;100.00
71195;BME280;58908;51.426;7.714;2023-07-28T11:55:16;98979.41;;;23.83;100.00
71195;BME280;58908;51.426;7.714;2023-07-28T11:57:44;98967.22;;;23.52;100.00
71195;BME280;58908;51.426;7.714;2023-07-28T12:00:11;98961.31;;;23.77;100.00
71195;BME280;58908;51.426;7.714;2023-07-28T12:02:41;98967.97;;;23.96;100.00
71195;BME280;58908;51.426;7.714;2023-07-28T12:05:11;98948.78;;;24.47;100.00
71195;BME280;58908;51.426;7.714;2023-07-28T12:07:38;98952.84;;;23.95;100.00
71195;BME280;58908;51.426;7.714;2023-07-28T12:10:04;98961.66;;;24.24;100.00
71195;BME280;58908;51.426;7.714;2023-07-28T12:12:38;98968.28;;;23.86;100.00
71195;BME280;58908;51.426;7.714;2023-07-28T12:15:17;98955.47;;;23.74;100.00
71195;BME280;58908;51.426;7.714;2023-07-28T12:20:25;98951.53;;;23.76;100.00
71195;BME280;58908;51.426;7.714;2023-07-28T12:22:51;98968.63;;;23.98;100.00
71195;BME280;58908;51.426;7.714;2023-07-28T12:25:17;98957.78;;;23.91;100.00
71195;BME280;58908;51.426;7.714;2023-07-28T12:27:44;98945.97;;;23.92;100.00
71195;BME280;58908;51.426;7.714;2023-07-28T12:30:12;98962.25;;;23.70;100.00
71195;BME280;58908;51.426;7.714;2023-07-28T12:32:38;98967.88;;;23.39;100.00
71195;BME280;58908;51.426;7.714;2023-07-28T12:41:10;98965.56;;;23.86;100.00
71195;BME280;58908;51.426;7.714;2023-07-28T12:43:37;98956.56;;;23.79;100.00
71195;BME280;58908;51.426;7.714;2023-07-28T12:46:04;98959.97;;;24.23;100.00
71195;BME280;58908;51.426;7.714;2023-07-28T12:48:30;98960.63;;;24.25;100.00
71195;BME280;58908;51.426;7.714;2023-07-28T12:50:57;98952.72;;;24.24;100.00
71195;BME280;58908;51.426;7.714;2023-07-28T12:53:23;98954.22;;;23.91;100.00
71195;BME280;58908;51.426;7.714;2023-07-28T12:55:49;98958.09;;;24.03;100.00
71195;BME280;58908;51.426;7.714;2023-07-28T12:58:16;98935.44;;;24.60;100.00